createdAt,value
2018-11-21T00:01:16.618Z,6.53
2018-11-21T00:03:43.709Z,7.17
2018-11-21T00:06:10.858Z,5.87
2018-11-21T00:08:38.012Z,6.77
2018-11-21T00:13:32.355Z,6.37
2018-11-21T00:15:59.497Z,6.63
2018-11-21T00:18:26.611Z,6.07
2018-11-21T00:20:53.702Z,6.03
2018-11-21T00:23:20.814Z,6.00
2018-11-21T00:25:48.036Z,6.70
2018-11-21T00:28:15.211Z,5.80
2018-11-21T00:30:42.306Z,5.93
2018-11-21T00:33:09.450Z,5.90
2018-11-21T00:35:36.563Z,6.10
2018-11-21T00:38:03.828Z,6.07
2018-11-21T00:40:30.928Z,5.90
2018-11-21T00:42:58.094Z,6.00
2018-11-21T00:45:25.269Z,6.10
2018-11-21T00:47:52.371Z,5.33
2018-11-21T00:50:19.505Z,5.97
2018-11-21T00:52:46.633Z,6.50
2018-11-21T00:55:13.873Z,5.00
2018-11-21T00:57:41.014Z,5.73
2018-11-21T01:00:08.939Z,6.00
2018-11-21T01:02:36.048Z,6.60
2018-11-21T01:05:03.160Z,6.57
2018-11-21T01:07:30.281Z,5.70
2018-11-21T01:09:57.425Z,5.90
2018-11-21T01:12:24.560Z,5.93
2018-11-21T01:14:51.671Z,6.27
2018-11-21T01:17:18.815Z,6.00
2018-11-21T01:19:45.956Z,5.97
2018-11-21T01:22:13.090Z,6.10
2018-11-21T01:24:40.221Z,5.63
2018-11-21T01:27:07.335Z,5.67
2018-11-21T01:29:34.479Z,6.10
2018-11-21T01:32:01.617Z,5.57
2018-11-21T01:34:29.295Z,5.60
2018-11-21T01:36:56.410Z,6.10
2018-11-21T01:39:23.570Z,5.93
2018-11-21T01:41:50.662Z,5.63
2018-11-21T01:44:17.943Z,6.27
2018-11-21T01:46:45.085Z,5.67
2018-11-21T01:49:12.217Z,6.17
2018-11-21T01:51:41.429Z,7.00
2018-11-21T01:54:08.626Z,5.40
2018-11-21T01:56:35.738Z,6.07
2018-11-21T01:59:02.824Z,5.63
2018-11-21T02:01:29.981Z,5.10
2018-11-21T02:03:57.118Z,5.50
2018-11-21T02:06:24.259Z,6.40
2018-11-21T02:08:51.351Z,5.70
2018-11-21T02:11:18.502Z,5.70
2018-11-21T02:13:45.779Z,5.50
2018-11-21T02:16:12.878Z,5.73
2018-11-21T02:18:39.989Z,6.77
2018-11-21T02:21:07.176Z,6.10
2018-11-21T02:23:34.351Z,6.13
2018-11-21T02:26:01.510Z,5.27
2018-11-21T02:28:28.680Z,5.30
2018-11-21T02:30:55.830Z,5.50
2018-11-21T02:33:22.978Z,5.93
2018-11-21T02:35:50.137Z,6.77
2018-11-21T02:38:17.371Z,5.47
2018-11-21T02:40:44.514Z,6.20
2018-11-21T02:43:11.628Z,6.23
2018-11-21T02:45:38.793Z,6.50
2018-11-21T02:48:05.904Z,5.73
2018-11-21T02:50:33.029Z,6.40
2018-11-21T02:53:00.189Z,5.67
2018-11-21T02:55:27.321Z,6.63
2018-11-21T02:57:54.462Z,5.77
2018-11-21T03:00:23.220Z,5.53
2018-11-21T03:02:50.335Z,6.00
2018-11-21T03:05:17.687Z,5.87
2018-11-21T03:07:58.002Z,5.90
2018-11-21T03:10:25.715Z,6.27
2018-11-21T03:12:52.979Z,5.60
2018-11-21T03:15:20.132Z,6.07
2018-11-21T03:17:47.433Z,7.53
2018-11-21T03:20:14.791Z,5.67
2018-11-21T03:22:41.926Z,6.20
2018-11-21T03:25:09.072Z,6.70
2018-11-21T03:27:36.256Z,6.33
2018-11-21T03:30:04.317Z,6.33
2018-11-21T03:32:31.581Z,6.07
2018-11-21T03:34:58.712Z,5.67
2018-11-21T03:37:25.878Z,7.20
2018-11-21T03:39:53.129Z,6.93
2018-11-21T03:42:20.436Z,6.53
2018-11-21T03:44:47.595Z,5.73
2018-11-21T03:47:14.809Z,6.40
2018-11-21T03:49:41.970Z,6.60
2018-11-21T03:52:09.202Z,6.17
2018-11-21T03:54:36.910Z,6.10
2018-11-21T03:57:04.032Z,6.57
2018-11-21T03:59:31.156Z,6.60
2018-11-21T04:01:58.225Z,6.43
2018-11-21T04:04:25.304Z,6.47
2018-11-21T04:06:52.423Z,5.90
2018-11-21T04:09:19.573Z,6.97
2018-11-21T04:11:46.681Z,6.13
2018-11-21T04:14:13.773Z,7.10
2018-11-21T04:16:40.852Z,6.67
2018-11-21T04:19:07.980Z,6.33
2018-11-21T04:21:35.090Z,6.17
2018-11-21T04:24:02.171Z,6.40
2018-11-21T04:26:29.281Z,7.27
2018-11-21T04:28:56.338Z,7.00
2018-11-21T04:31:23.477Z,5.93
2018-11-21T04:33:50.564Z,7.23
2018-11-21T04:36:17.678Z,6.80
2018-11-21T04:38:44.739Z,7.37
2018-11-21T04:41:11.838Z,7.13
2018-11-21T04:43:38.899Z,6.97
2018-11-21T04:46:06.404Z,7.07
2018-11-21T04:48:33.556Z,6.57
2018-11-21T04:51:00.617Z,7.00
2018-11-21T04:53:28.122Z,6.93
2018-11-21T04:55:55.095Z,7.03
2018-11-21T04:58:22.187Z,7.30
2018-11-21T05:00:49.308Z,6.90
2018-11-21T05:03:16.438Z,6.53
2018-11-21T05:05:43.652Z,7.23
2018-11-21T05:08:10.745Z,6.53
2018-11-21T05:10:38.024Z,6.67
2018-11-21T05:13:05.142Z,7.70
2018-11-21T05:15:32.229Z,7.20
2018-11-21T05:17:59.375Z,8.00
2018-11-21T05:20:26.478Z,7.47
2018-11-21T05:22:53.603Z,6.13
2018-11-21T05:25:20.707Z,6.90
2018-11-21T05:27:47.874Z,8.10
2018-11-21T05:30:14.999Z,8.23
2018-11-21T05:32:42.141Z,7.53
2018-11-21T05:35:09.484Z,7.77
2018-11-21T05:37:36.642Z,8.03
2018-11-21T05:40:04.932Z,6.57
2018-11-21T05:42:32.009Z,7.07
2018-11-21T05:44:59.166Z,7.43
2018-11-21T05:47:26.270Z,7.47
2018-11-21T05:49:53.375Z,7.27
2018-11-21T05:52:20.455Z,6.57
2018-11-21T05:54:47.597Z,7.37
2018-11-21T05:57:14.737Z,7.73
2018-11-21T05:59:41.832Z,7.50
2018-11-21T06:02:08.975Z,7.73
2018-11-21T06:04:36.093Z,7.30
2018-11-21T06:07:03.236Z,7.80
2018-11-21T06:09:30.315Z,6.57
2018-11-21T06:11:57.470Z,6.90
2018-11-21T06:14:24.787Z,6.87
2018-11-21T06:16:51.707Z,7.10
2018-11-21T06:19:18.825Z,7.13
2018-11-21T06:21:45.957Z,7.23
2018-11-21T06:24:13.116Z,6.93
2018-11-21T06:26:40.264Z,7.43
2018-11-21T06:29:07.410Z,7.17
2018-11-21T06:31:34.546Z,7.47
2018-11-21T06:34:01.654Z,7.50
2018-11-21T06:36:28.833Z,7.83
2018-11-21T06:38:56.027Z,7.50
2018-11-21T06:41:23.171Z,6.27
2018-11-21T06:43:50.318Z,20.73
2018-11-21T06:46:17.432Z,10.00
2018-11-21T06:48:44.582Z,7.27
2018-11-21T06:51:11.745Z,7.93
2018-11-21T07:56:43.916Z,7.53
2018-11-21T07:59:11.050Z,8.20
2018-11-21T08:01:50.232Z,8.83
2018-11-21T08:04:25.272Z,7.77
2018-11-21T08:06:56.415Z,7.77
2018-11-21T08:09:45.983Z,8.50
2018-11-21T08:12:32.661Z,7.33
2018-11-21T08:15:19.432Z,7.07
2018-11-21T08:23:39.977Z,9.50
2018-11-21T08:26:16.095Z,10.50
2018-11-21T08:28:43.280Z,10.97
2018-11-21T08:31:10.365Z,9.90
2018-11-21T08:33:37.466Z,11.00
2018-11-21T08:36:05.227Z,11.77
2018-11-21T08:38:32.341Z,11.63
2018-11-21T08:40:59.482Z,12.43
2018-11-21T08:43:26.968Z,11.30
2018-11-21T08:45:54.097Z,11.50
2018-11-21T08:48:21.636Z,12.03
2018-11-21T08:50:48.793Z,22.13
2018-11-21T08:53:15.922Z,13.17
2018-11-21T08:55:43.076Z,13.07
2018-11-21T08:58:10.223Z,14.83
2018-11-21T09:00:37.368Z,14.77
2018-11-21T09:03:05.121Z,11.70
2018-11-21T09:05:32.223Z,10.73
2018-11-21T09:07:59.462Z,10.70
2018-11-21T09:12:53.389Z,11.40
2018-11-21T09:15:20.528Z,12.83
2018-11-21T09:17:47.676Z,10.37
2018-11-21T09:20:14.813Z,10.17
2018-11-21T09:22:41.940Z,9.50
2018-11-21T09:25:09.525Z,10.33
2018-11-21T09:27:37.080Z,11.73
2018-11-21T09:30:07.813Z,12.23
2018-11-21T09:32:34.978Z,10.93
2018-11-21T09:35:02.146Z,11.87
2018-11-21T09:37:29.267Z,9.70
2018-11-21T09:39:56.378Z,10.10
2018-11-21T09:42:23.519Z,10.53
2018-11-21T09:44:50.689Z,11.50
2018-11-21T09:47:17.818Z,8.70
2018-11-21T09:49:44.973Z,8.57
2018-11-21T09:52:12.141Z,9.17
2018-11-21T09:54:39.362Z,8.80
2018-11-21T09:57:06.523Z,9.50
2018-11-21T09:59:33.677Z,9.03
2018-11-21T10:02:18.840Z,8.90
2018-11-21T10:04:45.991Z,8.03
2018-11-21T10:07:13.291Z,8.73
2018-11-21T10:09:42.755Z,9.30
2018-11-21T10:12:09.945Z,9.33
2018-11-21T10:14:37.028Z,11.00
2018-11-21T10:17:04.199Z,9.80
2018-11-21T10:19:31.328Z,9.97
2018-11-21T10:21:58.419Z,12.17
2018-11-21T10:24:25.567Z,13.93
2018-11-21T10:26:52.709Z,12.23
2018-11-21T10:29:19.861Z,11.53
2018-11-21T10:31:46.993Z,14.37
2018-11-21T10:34:14.141Z,17.07
2018-11-21T10:36:41.223Z,15.30
2018-11-21T10:39:08.675Z,12.57
2018-11-21T10:41:35.818Z,15.10
2018-11-21T10:44:02.974Z,11.67
2018-11-21T10:46:30.094Z,11.53
2018-11-21T10:48:57.190Z,13.47
2018-11-21T10:51:24.305Z,11.27
2018-11-21T10:53:51.433Z,12.47
2018-11-21T10:56:18.553Z,10.07
2018-11-21T10:58:45.646Z,11.87
2018-11-21T11:01:41.483Z,11.77
2018-11-21T11:04:13.356Z,11.83
2018-11-21T11:06:58.625Z,10.60
2018-11-21T11:10:00.254Z,11.90
2018-11-21T11:12:45.606Z,10.90
2018-11-21T11:15:37.963Z,10.03
2018-11-21T11:18:42.681Z,9.90
2018-11-21T11:21:33.784Z,11.13
2018-11-21T11:24:23.429Z,10.40
2018-11-21T11:27:19.080Z,10.20
2018-11-21T11:30:05.744Z,9.20
2018-11-21T11:33:10.367Z,9.17
2018-11-21T11:36:01.333Z,10.13
2018-11-21T11:39:02.840Z,9.00
2018-11-21T11:41:55.287Z,9.10
2018-11-21T11:44:41.961Z,9.70
2018-11-21T11:47:37.348Z,9.97
2018-11-21T11:50:24.807Z,9.67
2018-11-21T11:53:11.665Z,9.17
2018-11-21T11:55:56.581Z,8.77
2018-11-21T11:58:41.817Z,10.73
2018-11-21T12:01:40.323Z,11.33
2018-11-21T12:04:16.084Z,8.97
2018-11-21T12:07:20.871Z,13.00
2018-11-21T12:10:05.906Z,11.07
2018-11-21T12:12:52.608Z,10.73
2018-11-21T12:15:37.568Z,8.40
2018-11-21T12:18:13.471Z,8.77
2018-11-21T12:21:02.908Z,10.37
2018-11-21T12:24:07.620Z,9.90
2018-11-21T12:26:47.345Z,11.73
2018-11-21T12:29:26.110Z,10.80
2018-11-21T12:32:15.838Z,9.33
2018-11-21T12:35:01.140Z,9.03
2018-11-21T12:37:47.884Z,9.60
2018-11-21T12:40:33.208Z,10.37
2018-11-21T12:43:18.909Z,11.43
2018-11-21T12:46:11.578Z,11.00
2018-11-21T12:48:56.919Z,10.27
2018-11-21T12:51:44.014Z,8.50
2018-11-21T12:54:21.590Z,9.07
2018-11-21T12:56:58.869Z,8.90
2018-11-21T13:00:03.441Z,15.10
2018-11-21T13:03:02.177Z,11.00
2018-11-21T13:06:07.030Z,10.27
2018-11-21T13:08:48.559Z,8.53
2018-11-21T13:11:47.211Z,12.47
2018-11-21T13:14:33.874Z,9.87
2018-11-21T13:17:17.438Z,9.27
2018-11-21T13:20:04.146Z,8.53
2018-11-21T13:22:53.724Z,8.50
2018-11-21T13:25:49.232Z,8.93
2018-11-21T13:28:34.225Z,8.63
2018-11-21T13:31:20.892Z,9.53
2018-11-21T13:34:04.972Z,9.20
2018-11-21T13:36:50.071Z,8.83
2018-11-21T13:39:35.087Z,8.80
2018-11-21T13:42:30.610Z,8.30
2018-11-21T13:45:15.714Z,10.17
2018-11-21T13:48:14.091Z,10.10
2018-11-21T13:51:18.861Z,9.87
2018-11-21T13:53:57.871Z,9.37
2018-11-21T13:56:25.013Z,10.20
2018-11-21T13:58:52.107Z,10.00
2018-11-21T14:01:19.263Z,10.10
2018-11-21T14:03:46.335Z,9.70
2018-11-21T14:06:13.430Z,11.10
2018-11-21T14:08:40.552Z,9.33
2018-11-21T14:11:07.713Z,9.20
2018-11-21T14:13:34.790Z,8.93
2018-11-21T14:16:01.928Z,9.67
2018-11-21T14:18:29.048Z,9.00
2018-11-21T14:20:56.142Z,9.90
2018-11-21T14:23:23.305Z,8.50
2018-11-21T14:25:50.540Z,8.77
2018-11-21T14:28:17.647Z,8.23
2018-11-21T14:30:44.747Z,10.17
2018-11-21T14:33:11.923Z,8.50
2018-11-21T14:35:39.045Z,9.53
2018-11-21T14:38:06.171Z,10.32
2018-11-21T14:40:33.302Z,8.60
2018-11-21T14:43:00.424Z,8.90
2018-11-21T14:45:27.562Z,8.50
2018-11-21T14:47:54.736Z,10.00
2018-11-21T14:50:22.853Z,8.73
2018-11-21T14:52:50.015Z,8.70
2018-11-21T14:55:17.144Z,14.83
2018-11-21T14:57:44.275Z,58.03
2018-11-21T15:00:14.262Z,30.77
2018-11-21T15:02:41.413Z,22.00
2018-11-21T15:05:09.235Z,16.13
2018-11-21T15:07:36.376Z,11.80
2018-11-21T15:10:03.776Z,11.03
2018-11-21T15:12:30.930Z,9.30
2018-11-21T15:14:58.106Z,8.60
2018-11-21T15:17:25.234Z,8.73
2018-11-21T15:19:52.427Z,8.67
2018-11-21T15:22:19.545Z,9.20
2018-11-21T15:24:46.652Z,10.30
2018-11-21T15:27:13.753Z,9.40
2018-11-21T15:29:40.920Z,10.40
2018-11-21T15:32:08.024Z,9.10
2018-11-21T15:34:35.183Z,9.47
2018-11-21T15:37:02.367Z,9.87
2018-11-21T15:39:29.546Z,9.90
2018-11-21T15:41:56.698Z,10.23
2018-11-21T15:44:23.864Z,10.20
2018-11-21T15:46:50.980Z,8.83
2018-11-21T15:49:18.175Z,10.80
2018-11-21T15:51:45.267Z,10.97
2018-11-21T15:54:12.403Z,9.83
2018-11-21T15:56:39.535Z,10.07
2018-11-21T15:59:06.661Z,9.80
2018-11-21T16:01:33.815Z,9.47
2018-11-21T16:04:00.935Z,9.90
2018-11-21T16:06:28.061Z,9.93
2018-11-21T16:08:55.192Z,9.80
2018-11-21T16:11:22.360Z,10.00
2018-11-21T16:13:49.498Z,9.97
2018-11-21T16:16:16.952Z,11.10
2018-11-21T16:18:44.166Z,9.80
2018-11-21T16:21:11.319Z,10.27
2018-11-21T16:23:38.458Z,10.53
2018-11-21T16:26:05.617Z,11.10
2018-11-21T16:28:32.797Z,9.83
2018-11-21T16:30:59.956Z,9.73
2018-11-21T16:33:27.138Z,9.70
2018-11-21T16:35:54.279Z,8.97
2018-11-21T16:38:21.402Z,8.70
2018-11-21T16:40:48.939Z,10.10
2018-11-21T16:43:16.041Z,9.27
2018-11-21T16:45:45.199Z,8.40
2018-11-21T16:48:12.369Z,8.90
2018-11-21T16:50:39.610Z,9.23
2018-11-21T16:53:06.765Z,7.77
2018-11-21T16:55:34.110Z,9.40
2018-11-21T16:58:02.021Z,8.33
2018-11-21T17:00:30.187Z,8.77
2018-11-21T17:02:57.311Z,8.93
2018-11-21T17:05:25.586Z,9.50
2018-11-21T17:07:52.703Z,9.00
2018-11-21T17:10:21.301Z,8.40
2018-11-21T17:12:48.867Z,9.03
2018-11-21T17:15:17.605Z,8.53
2018-11-21T17:17:44.821Z,9.07
2018-11-21T17:20:29.503Z,9.03
2018-11-21T17:22:57.837Z,9.47
2018-11-21T17:25:27.133Z,8.77
2018-11-21T17:27:54.314Z,8.23
2018-11-21T17:30:22.130Z,8.03
2018-11-21T17:32:49.741Z,8.10
2018-11-21T17:35:18.265Z,8.23
2018-11-21T17:37:45.636Z,10.00
2018-11-21T17:40:25.043Z,9.27
2018-11-21T17:42:52.367Z,8.20
2018-11-21T17:45:19.893Z,9.00
2018-11-21T17:47:47.073Z,9.03
2018-11-21T17:50:15.486Z,8.43
2018-11-21T17:52:43.003Z,8.60
2018-11-21T17:55:14.528Z,10.27
2018-11-21T17:57:41.712Z,10.40
2018-11-21T18:00:09.847Z,10.73
2018-11-21T18:02:37.030Z,9.03
2018-11-21T18:05:08.383Z,9.77
2018-11-21T18:07:32.346Z,9.70
2018-11-21T18:09:59.604Z,10.10
2018-11-21T18:12:26.721Z,10.00
2018-11-21T18:14:53.850Z,9.30
2018-11-21T18:17:21.005Z,9.93
2018-11-21T18:19:48.165Z,9.33
2018-11-21T18:22:15.297Z,9.53
2018-11-21T18:24:42.597Z,9.73
2018-11-21T18:27:09.777Z,9.53
2018-11-21T18:29:36.945Z,8.47
2018-11-21T18:32:04.368Z,8.90
2018-11-21T18:34:31.557Z,9.13
2018-11-21T18:36:58.718Z,8.50
2018-11-21T18:39:25.785Z,8.40
2018-11-21T18:41:57.991Z,8.93
2018-11-21T18:44:19.976Z,8.17
2018-11-21T18:46:47.069Z,8.83
2018-11-21T18:49:14.174Z,7.77
2018-11-21T18:51:41.277Z,9.27
2018-11-21T18:54:08.392Z,7.97
2018-11-21T18:56:36.997Z,8.10
2018-11-21T18:59:11.427Z,8.53
2018-11-21T19:01:38.573Z,8.67
2018-11-21T19:04:05.646Z,7.97
2018-11-21T19:06:32.787Z,13.50
2018-11-21T19:08:59.922Z,14.07
2018-11-21T19:11:27.067Z,11.63
2018-11-21T19:13:54.147Z,11.10
2018-11-21T19:16:21.327Z,13.60
2018-11-21T19:18:48.508Z,13.67
2018-11-21T19:21:15.663Z,10.67
2018-11-21T19:23:42.909Z,10.67
2018-11-21T19:26:10.096Z,9.03
2018-11-21T19:28:37.209Z,8.47
2018-11-21T19:31:04.903Z,8.37
2018-11-21T19:33:32.102Z,8.17
2018-11-21T19:35:59.231Z,8.57
2018-11-21T19:38:26.306Z,8.33
2018-11-21T19:40:53.419Z,8.03
2018-11-21T19:43:20.511Z,11.97
2018-11-21T19:45:47.605Z,10.33
2018-11-21T19:48:14.738Z,9.27
2018-11-21T19:50:41.910Z,12.70
2018-11-21T19:53:09.015Z,12.63
2018-11-21T19:55:36.578Z,10.00
2018-11-21T19:58:04.048Z,9.13
2018-11-21T20:00:32.180Z,12.30
2018-11-21T20:02:59.307Z,13.22
2018-11-21T20:05:28.115Z,9.80
2018-11-21T20:07:55.320Z,9.57
2018-11-21T20:10:22.799Z,9.03
2018-11-21T20:12:49.972Z,8.33
2018-11-21T20:15:18.838Z,8.73
2018-11-21T20:17:53.627Z,7.73
2018-11-21T20:20:21.349Z,7.43
2018-11-21T20:32:19.242Z,9.10
2018-11-21T20:34:46.548Z,8.60
2018-11-21T20:37:13.657Z,8.67
2018-11-21T20:39:46.775Z,7.70
2018-11-21T20:42:08.036Z,7.70
2018-11-21T20:44:35.222Z,8.67
2018-11-21T20:47:02.414Z,7.97
2018-11-21T20:49:29.499Z,8.23
2018-11-21T20:51:56.681Z,8.47
2018-11-21T20:54:23.757Z,8.13
2018-11-21T20:56:50.865Z,7.57
2018-11-21T20:59:18.134Z,8.03
2018-11-21T21:01:45.249Z,7.83
2018-11-21T21:04:12.420Z,7.73
2018-11-21T21:06:39.558Z,8.63
2018-11-21T21:09:09.067Z,9.53
2018-11-21T21:11:36.619Z,8.47
2018-11-21T21:14:03.773Z,7.80
2018-11-21T21:16:30.913Z,7.70
2018-11-21T21:18:58.166Z,7.87
2018-11-21T21:21:25.325Z,8.53
2018-11-21T21:23:52.422Z,9.03
2018-11-21T21:26:19.829Z,7.93
2018-11-21T21:28:47.248Z,8.13
2018-11-21T21:31:14.426Z,8.60
2018-11-21T21:33:41.668Z,8.63
2018-11-21T21:36:08.929Z,8.33
2018-11-21T21:38:36.195Z,7.73
2018-11-21T21:46:50.282Z,7.83
2018-11-21T21:49:17.435Z,8.37
2018-11-21T21:51:44.610Z,7.53
2018-11-21T21:54:11.742Z,7.97
2018-11-21T21:56:38.915Z,7.20
2018-11-21T21:59:06.079Z,7.70
2018-11-21T22:01:33.250Z,7.27
2018-11-21T22:04:00.564Z,7.20
2018-11-21T22:06:27.708Z,7.83
2018-11-21T22:08:54.866Z,8.07
2018-11-21T22:11:22.013Z,8.40
2018-11-21T22:13:49.195Z,7.63
2018-11-21T22:16:16.328Z,7.97
2018-11-21T22:18:43.514Z,8.43
